sensor_id;sensor_type;location;lat;lon;timestamp;P1;durP1;ratioP1;P2;durP2;ratioP2
48040;SDS011;33815;48.386;11.738;2023-12-20T00:00:40;3.03;;;2.72;;
48040;SDS011;33815;48.386;11.738;2023-12-20T00:03:05;4.18;;;2.70;;
48040;SDS011;33815;48.386;11.738;2023-12-20T00:05:30;4.72;;;2.65;;
48040;SDS011;33815;48.386;11.738;2023-12-20T00:08:00;3.38;;;2.40;;
48040;SDS011;33815;48.386;11.738;2023-12-20T00:10:25;2.30;;;2.10;;
48040;SDS011;33815;48.386;11.738;2023-12-20T00:12:50;3.67;;;2.95;;
48040;SDS011;33815;48.386;11.738;2023-12-20T00:15:16;2.65;;;2.45;;
48040;SDS011;33815;48.386;11.738;2023-12-20T00:17:41;2.97;;;2.30;;
48040;SDS011;33815;48.386;11.738;2023-12-20T00:20:06;2.92;;;2.28;;
48040;SDS011;33815;48.386;11.738;2023-12-20T00:22:32;3.15;;;2.67;;
48040;SDS011;33815;48.386;11.738;2023-12-20T00:24:57;3.60;;;2.47;;
48040;SDS011;33815;48.386;11.738;2023-12-20T00:27:23;2.47;;;2.25;;
48040;SDS011;33815;48.386;11.738;2023-12-20T00:29:48;3.45;;;1.98;;
48040;SDS011;33815;48.386;11.738;2023-12-20T00:32:15;2.33;;;2.13;;
48040;SDS011;33815;48.386;11.738;2023-12-20T00:34:40;2.22;;;2.10;;
48040;SDS011;33815;48.386;11.738;2023-12-20T00:37:06;2.40;;;2.20;;
48040;SDS011;33815;48.386;11.738;2023-12-20T00:39:31;2.85;;;2.33;;
48040;SDS011;33815;48.386;11.738;2023-12-20T00:41:58;3.40;;;2.42;;
48040;SDS011;33815;48.386;11.738;2023-12-20T00:44:23;2.30;;;2.05;;
48040;SDS011;33815;48.386;11.738;2023-12-20T00:46:48;2.30;;;2.13;;
48040;SDS011;33815;48.386;11.738;2023-12-20T00:49:13;2.00;;;1.90;;
48040;SDS011;33815;48.386;11.738;2023-12-20T00:51:39;2.50;;;2.30;;
48040;SDS011;33815;48.386;11.738;2023-12-20T00:54:04;2.75;;;2.47;;
48040;SDS011;33815;48.386;11.738;2023-12-20T00:56:29;4.30;;;2.72;;
48040;SDS011;33815;48.386;11.738;2023-12-20T00:58:55;3.45;;;2.47;;
48040;SDS011;33815;48.386;11.738;2023-12-20T01:01:20;3.40;;;2.65;;
48040;SDS011;33815;48.386;11.738;2023-12-20T01:03:46;2.50;;;2.28;;
48040;SDS011;33815;48.386;11.738;2023-12-20T01:06:12;2.40;;;2.00;;
48040;SDS011;33815;48.386;11.738;2023-12-20T01:08:37;3.08;;;2.50;;
48040;SDS011;33815;48.386;11.738;2023-12-20T01:11:05;2.63;;;2.15;;
48040;SDS011;33815;48.386;11.738;2023-12-20T01:13:31;3.10;;;2.38;;
48040;SDS011;33815;48.386;11.738;2023-12-20T01:15:56;2.33;;;2.13;;
48040;SDS011;33815;48.386;11.738;2023-12-20T01:18:21;3.65;;;2.65;;
48040;SDS011;33815;48.386;11.738;2023-12-20T01:20:47;2.78;;;2.38;;
48040;SDS011;33815;48.386;11.738;2023-12-20T01:23:12;4.28;;;2.30;;
48040;SDS011;33815;48.386;11.738;2023-12-20T01:25:37;2.92;;;2.50;;
48040;SDS011;33815;48.386;11.738;2023-12-20T01:28:02;2.40;;;2.20;;
48040;SDS011;33815;48.386;11.738;2023-12-20T01:30:28;2.55;;;2.35;;
48040;SDS011;33815;48.386;11.738;2023-12-20T01:32:53;3.53;;;2.50;;
48040;SDS011;33815;48.386;11.738;2023-12-20T01:35:19;3.97;;;2.45;;
48040;SDS011;33815;48.386;11.738;2023-12-20T01:37:44;3.20;;;2.53;;
48040;SDS011;33815;48.386;11.738;2023-12-20T01:40:10;3.80;;;2.90;;
48040;SDS011;33815;48.386;11.738;2023-12-20T01:42:35;4.03;;;2.47;;
48040;SDS011;33815;48.386;11.738;2023-12-20T01:45:01;2.75;;;2.50;;
48040;SDS011;33815;48.386;11.738;2023-12-20T01:47:26;4.25;;;2.45;;
48040;SDS011;33815;48.386;11.738;2023-12-20T01:49:52;3.22;;;2.53;;
48040;SDS011;33815;48.386;11.738;2023-12-20T01:52:18;3.50;;;2.45;;
48040;SDS011;33815;48.386;11.738;2023-12-20T01:54:45;2.58;;;2.38;;
48040;SDS011;33815;48.386;11.738;2023-12-20T01:57:10;3.42;;;2.47;;
48040;SDS011;33815;48.386;11.738;2023-12-20T01:59:36;2.97;;;2.78;;
48040;SDS011;33815;48.386;11.738;2023-12-20T02:02:04;2.78;;;2.47;;
48040;SDS011;33815;48.386;11.738;2023-12-20T02:04:30;3.03;;;2.20;;
48040;SDS011;33815;48.386;11.738;2023-12-20T02:06:56;3.97;;;3.10;;
48040;SDS011;33815;48.386;11.738;2023-12-20T02:09:22;3.70;;;3.42;;
48040;SDS011;33815;48.386;11.738;2023-12-20T02:11:47;2.40;;;2.20;;
48040;SDS011;33815;48.386;11.738;2023-12-20T02:14:13;2.33;;;2.13;;
48040;SDS011;33815;48.386;11.738;2023-12-20T02:16:38;2.42;;;2.22;;
48040;SDS011;33815;48.386;11.738;2023-12-20T02:19:04;3.05;;;2.03;;
48040;SDS011;33815;48.386;11.738;2023-12-20T02:21:35;2.85;;;2.03;;
48040;SDS011;33815;48.386;11.738;2023-12-20T02:24:01;4.38;;;2.28;;
48040;SDS011;33815;48.386;11.738;2023-12-20T02:26:26;2.17;;;1.90;;
48040;SDS011;33815;48.386;11.738;2023-12-20T02:28:51;3.05;;;2.30;;
48040;SDS011;33815;48.386;11.738;2023-12-20T02:31:20;2.90;;;2.13;;
48040;SDS011;33815;48.386;11.738;2023-12-20T02:33:46;3.90;;;2.60;;
48040;SDS011;33815;48.386;11.738;2023-12-20T02:36:11;2.65;;;1.98;;
48040;SDS011;33815;48.386;11.738;2023-12-20T02:38:36;2.90;;;2.20;;
48040;SDS011;33815;48.386;11.738;2023-12-20T02:41:02;2.80;;;2.20;;
48040;SDS011;33815;48.386;11.738;2023-12-20T02:43:28;2.60;;;2.20;;
48040;SDS011;33815;48.386;11.738;2023-12-20T02:45:53;3.00;;;2.25;;
48040;SDS011;33815;48.386;11.738;2023-12-20T02:48:18;2.03;;;1.88;;
48040;SDS011;33815;48.386;11.738;2023-12-20T02:50:44;2.17;;;1.83;;
48040;SDS011;33815;48.386;11.738;2023-12-20T02:53:11;1.95;;;1.77;;
48040;SDS011;33815;48.386;11.738;2023-12-20T02:55:36;2.45;;;2.25;;
48040;SDS011;33815;48.386;11.738;2023-12-20T02:58:02;2.55;;;2.05;;
48040;SDS011;33815;48.386;11.738;2023-12-20T03:00:27;2.60;;;2.40;;
48040;SDS011;33815;48.386;11.738;2023-12-20T03:02:52;1.85;;;1.75;;
48040;SDS011;33815;48.386;11.738;2023-12-20T03:05:18;2.63;;;2.42;;
48040;SDS011;33815;48.386;11.738;2023-12-20T03:07:43;1.95;;;1.75;;
48040;SDS011;33815;48.386;11.738;2023-12-20T03:10:08;2.00;;;1.77;;
48040;SDS011;33815;48.386;11.738;2023-12-20T03:12:34;2.38;;;1.65;;
48040;SDS011;33815;48.386;11.738;2023-12-20T03:14:59;1.90;;;1.75;;
48040;SDS011;33815;48.386;11.738;2023-12-20T03:17:25;1.80;;;1.70;;
48040;SDS011;33815;48.386;11.738;2023-12-20T03:19:50;2.58;;;2.10;;
48040;SDS011;33815;48.386;11.738;2023-12-20T03:22:15;2.03;;;1.88;;
48040;SDS011;33815;48.386;11.738;2023-12-20T03:24:40;2.47;;;2.13;;
48040;SDS011;33815;48.386;11.738;2023-12-20T03:27:06;1.77;;;1.67;;
48040;SDS011;33815;48.386;11.738;2023-12-20T03:29:31;2.13;;;1.98;;
48040;SDS011;33815;48.386;11.738;2023-12-20T03:31:56;2.05;;;1.80;;
48040;SDS011;33815;48.386;11.738;2023-12-20T03:34:22;1.92;;;1.83;;
48040;SDS011;33815;48.386;11.738;2023-12-20T03:36:47;2.15;;;1.95;;
48040;SDS011;33815;48.386;11.738;2023-12-20T03:39:12;2.97;;;1.70;;
48040;SDS011;33815;48.386;11.738;2023-12-20T03:41:38;1.85;;;1.70;;
48040;SDS011;33815;48.386;11.738;2023-12-20T03:44:03;2.25;;;1.92;;
48040;SDS011;33815;48.386;11.738;2023-12-20T03:46:29;1.90;;;1.77;;
48040;SDS011;33815;48.386;11.738;2023-12-20T03:48:54;2.22;;;1.95;;
48040;SDS011;33815;48.386;11.738;2023-12-20T03:51:19;1.88;;;1.73;;
48040;SDS011;33815;48.386;11.738;2023-12-20T03:53:44;2.72;;;2.03;;
48040;SDS011;33815;48.386;11.738;2023-12-20T03:56:10;2.13;;;1.95;;
48040;SDS011;33815;48.386;11.738;2023-12-20T03:58:35;2.97;;;2.20;;
48040;SDS011;33815;48.386;11.738;2023-12-20T04:01:00;2.90;;;2.10;;
48040;SDS011;33815;48.386;11.738;2023-12-20T04:03:26;3.97;;;1.70;;
48040;SDS011;33815;48.386;11.738;2023-12-20T04:05:51;2.72;;;2.10;;
48040;SDS011;33815;48.386;11.738;2023-12-20T04:08:16;2.30;;;1.92;;
48040;SDS011;33815;48.386;11.738;2023-12-20T04:10:42;2.00;;;1.80;;
48040;SDS011;33815;48.386;11.738;2023-12-20T04:13:07;5.75;;;2.08;;
48040;SDS011;33815;48.386;11.738;2023-12-20T04:15:32;1.90;;;1.80;;
48040;SDS011;33815;48.386;11.738;2023-12-20T04:17:57;2.33;;;1.80;;
48040;SDS011;33815;48.386;11.738;2023-12-20T04:20:23;2.20;;;2.08;;
48040;SDS011;33815;48.386;11.738;2023-12-20T04:22:48;1.90;;;1.80;;
48040;SDS011;33815;48.386;11.738;2023-12-20T04:25:13;2.75;;;2.55;;
48040;SDS011;33815;48.386;11.738;2023-12-20T04:27:39;2.00;;;1.90;;
48040;SDS011;33815;48.386;11.738;2023-12-20T04:30:04;2.35;;;1.90;;
48040;SDS011;33815;48.386;11.738;2023-12-20T04:32:30;1.95;;;1.80;;
48040;SDS011;33815;48.386;11.738;2023-12-20T04:34:56;2.20;;;1.75;;
48040;SDS011;33815;48.386;11.738;2023-12-20T04:37:21;2.50;;;2.10;;
48040;SDS011;33815;48.386;11.738;2023-12-20T04:39:47;2.22;;;2.05;;
48040;SDS011;33815;48.386;11.738;2023-12-20T04:42:12;2.30;;;2.20;;
48040;SDS011;33815;48.386;11.738;2023-12-20T04:44:37;3.13;;;2.28;;
48040;SDS011;33815;48.386;11.738;2023-12-20T04:47:02;2.35;;;1.95;;
48040;SDS011;33815;48.386;11.738;2023-12-20T04:49:28;2.35;;;2.15;;
48040;SDS011;33815;48.386;11.738;2023-12-20T04:51:53;2.65;;;2.20;;
48040;SDS011;33815;48.386;11.738;2023-12-20T04:54:19;2.63;;;2.20;;
48040;SDS011;33815;48.386;11.738;2023-12-20T04:56:44;3.65;;;2.50;;
48040;SDS011;33815;48.386;11.738;2023-12-20T04:59:09;3.83;;;2.88;;
48040;SDS011;33815;48.386;11.738;2023-12-20T05:01:35;3.78;;;2.28;;
48040;SDS011;33815;48.386;11.738;2023-12-20T05:04:00;2.28;;;2.08;;
48040;SDS011;33815;48.386;11.738;2023-12-20T05:06:25;3.50;;;2.22;;
48040;SDS011;33815;48.386;11.738;2023-12-20T05:08:51;2.60;;;2.40;;
48040;SDS011;33815;48.386;11.738;2023-12-20T05:11:16;3.15;;;2.30;;
48040;SDS011;33815;48.386;11.738;2023-12-20T05:13:42;2.42;;;2.22;;
48040;SDS011;33815;48.386;11.738;2023-12-20T05:16:07;2.63;;;2.30;;
48040;SDS011;33815;48.386;11.738;2023-12-20T05:18:33;3.72;;;2.20;;
48040;SDS011;33815;48.386;11.738;2023-12-20T05:20:59;3.35;;;2.50;;
48040;SDS011;33815;48.386;11.738;2023-12-20T05:23:24;2.75;;;2.50;;
48040;SDS011;33815;48.386;11.738;2023-12-20T05:25:49;3.03;;;2.35;;
48040;SDS011;33815;48.386;11.738;2023-12-20T05:28:15;2.78;;;2.35;;
48040;SDS011;33815;48.386;11.738;2023-12-20T05:30:40;2.70;;;2.45;;
48040;SDS011;33815;48.386;11.738;2023-12-20T05:33:05;2.67;;;2.47;;
48040;SDS011;33815;48.386;11.738;2023-12-20T05:35:31;3.13;;;2.83;;
48040;SDS011;33815;48.386;11.738;2023-12-20T05:37:56;3.58;;;2.65;;
48040;SDS011;33815;48.386;11.738;2023-12-20T05:40:21;5.38;;;2.97;;
48040;SDS011;33815;48.386;11.738;2023-12-20T05:42:46;3.20;;;2.83;;
48040;SDS011;33815;48.386;11.738;2023-12-20T05:45:14;2.92;;;2.40;;
48040;SDS011;33815;48.386;11.738;2023-12-20T05:47:40;3.53;;;2.40;;
48040;SDS011;33815;48.386;11.738;2023-12-20T05:50:05;4.90;;;3.22;;
48040;SDS011;33815;48.386;11.738;2023-12-20T05:52:31;2.80;;;2.50;;
48040;SDS011;33815;48.386;11.738;2023-12-20T05:54:56;3.25;;;2.88;;
48040;SDS011;33815;48.386;11.738;2023-12-20T05:57:26;3.30;;;3.00;;
48040;SDS011;33815;48.386;11.738;2023-12-20T05:59:51;3.03;;;2.72;;
48040;SDS011;33815;48.386;11.738;2023-12-20T06:02:17;2.50;;;2.30;;
48040;SDS011;33815;48.386;11.738;2023-12-20T06:04:42;3.65;;;2.42;;
48040;SDS011;33815;48.386;11.738;2023-12-20T06:07:10;2.60;;;2.40;;
48040;SDS011;33815;48.386;11.738;2023-12-20T06:09:36;3.03;;;2.63;;
48040;SDS011;33815;48.386;11.738;2023-12-20T06:12:02;2.97;;;2.75;;
48040;SDS011;33815;48.386;11.738;2023-12-20T06:14:27;4.50;;;2.53;;
48040;SDS011;33815;48.386;11.738;2023-12-20T06:16:52;2.30;;;2.10;;
48040;SDS011;33815;48.386;11.738;2023-12-20T06:19:18;2.63;;;2.42;;
48040;SDS011;33815;48.386;11.738;2023-12-20T06:21:43;5.03;;;2.22;;
48040;SDS011;33815;48.386;11.738;2023-12-20T06:24:08;2.95;;;2.70;;
48040;SDS011;33815;48.386;11.738;2023-12-20T06:26:34;2.90;;;2.38;;
48040;SDS011;33815;48.386;11.738;2023-12-20T06:28:59;6.65;;;2.47;;
48040;SDS011;33815;48.386;11.738;2023-12-20T06:31:25;2.58;;;2.38;;
48040;SDS011;33815;48.386;11.738;2023-12-20T06:33:50;2.58;;;2.42;;
48040;SDS011;33815;48.386;11.738;2023-12-20T06:36:22;2.60;;;2.40;;
48040;SDS011;33815;48.386;11.738;2023-12-20T06:38:48;2.75;;;2.33;;
48040;SDS011;33815;48.386;11.738;2023-12-20T06:41:13;2.25;;;2.03;;
48040;SDS011;33815;48.386;11.738;2023-12-20T06:43:39;3.30;;;3.00;;
48040;SDS011;33815;48.386;11.738;2023-12-20T06:46:05;2.58;;;2.38;;
48040;SDS011;33815;48.386;11.738;2023-12-20T06:48:31;2.70;;;2.45;;
48040;SDS011;33815;48.386;11.738;2023-12-20T06:50:56;2.20;;;2.00;;
48040;SDS011;33815;48.386;11.738;2023-12-20T06:53:24;2.58;;;2.38;;
48040;SDS011;33815;48.386;11.738;2023-12-20T06:55:49;2.28;;;2.03;;
48040;SDS011;33815;48.386;11.738;2023-12-20T06:58:15;3.75;;;2.53;;
48040;SDS011;33815;48.386;11.738;2023-12-20T07:00:41;3.33;;;2.75;;
48040;SDS011;33815;48.386;11.738;2023-12-20T07:03:06;3.45;;;2.90;;
48040;SDS011;33815;48.386;11.738;2023-12-20T07:05:32;3.05;;;2.75;;
48040;SDS011;33815;48.386;11.738;2023-12-20T07:07:58;3.30;;;3.00;;
48040;SDS011;33815;48.386;11.738;2023-12-20T07:10:23;4.65;;;3.45;;
48040;SDS011;33815;48.386;11.738;2023-12-20T07:12:49;4.28;;;3.88;;
48040;SDS011;33815;48.386;11.738;2023-12-20T07:15:14;4.13;;;3.60;;
48040;SDS011;33815;48.386;11.738;2023-12-20T07:17:39;4.10;;;3.55;;
48040;SDS011;33815;48.386;11.738;2023-12-20T07:20:05;6.07;;;3.35;;
48040;SDS011;33815;48.386;11.738;2023-12-20T07:22:34;3.88;;;3.15;;
48040;SDS011;33815;48.386;11.738;2023-12-20T07:25:00;3.95;;;3.28;;
48040;SDS011;33815;48.386;11.738;2023-12-20T07:27:25;3.92;;;3.63;;
48040;SDS011;33815;48.386;11.738;2023-12-20T07:29:51;5.38;;;3.70;;
48040;SDS011;33815;48.386;11.738;2023-12-20T07:32:16;3.65;;;3.25;;
48040;SDS011;33815;48.386;11.738;2023-12-20T07:34:42;5.53;;;3.90;;
48040;SDS011;33815;48.386;11.738;2023-12-20T07:37:07;4.35;;;3.85;;
48040;SDS011;33815;48.386;11.738;2023-12-20T07:39:35;4.85;;;3.92;;
48040;SDS011;33815;48.386;11.738;2023-12-20T07:42:00;5.38;;;4.05;;
48040;SDS011;33815;48.386;11.738;2023-12-20T07:44:26;5.25;;;4.32;;
48040;SDS011;33815;48.386;11.738;2023-12-20T07:46:51;5.70;;;4.55;;
48040;SDS011;33815;48.386;11.738;2023-12-20T07:49:16;5.53;;;4.43;;
48040;SDS011;33815;48.386;11.738;2023-12-20T07:51:41;4.65;;;3.85;;
48040;SDS011;33815;48.386;11.738;2023-12-20T07:54:07;4.20;;;3.80;;
48040;SDS011;33815;48.386;11.738;2023-12-20T07:56:33;5.10;;;4.00;;
48040;SDS011;33815;48.386;11.738;2023-12-20T07:58:58;4.97;;;4.22;;
48040;SDS011;33815;48.386;11.738;2023-12-20T08:01:23;4.97;;;4.25;;
48040;SDS011;33815;48.386;11.738;2023-12-20T08:03:49;4.45;;;4.05;;
48040;SDS011;33815;48.386;11.738;2023-12-20T08:06:15;4.75;;;4.25;;
48040;SDS011;33815;48.386;11.738;2023-12-20T08:08:42;4.85;;;3.88;;
48040;SDS011;33815;48.386;11.738;2023-12-20T08:11:07;5.55;;;4.63;;
48040;SDS011;33815;48.386;11.738;2023-12-20T08:13:32;6.38;;;4.53;;
48040;SDS011;33815;48.386;11.738;2023-12-20T08:15:58;6.53;;;4.50;;
48040;SDS011;33815;48.386;11.738;2023-12-20T08:18:23;6.43;;;4.97;;
48040;SDS011;33815;48.386;11.738;2023-12-20T08:20:48;5.20;;;4.70;;
48040;SDS011;33815;48.386;11.738;2023-12-20T08:23:14;5.28;;;4.70;;
48040;SDS011;33815;48.386;11.738;2023-12-20T08:25:40;5.30;;;4.80;;
48040;SDS011;33815;48.386;11.738;2023-12-20T08:28:05;7.22;;;4.90;;
48040;SDS011;33815;48.386;11.738;2023-12-20T08:30:31;6.55;;;4.68;;
48040;SDS011;33815;48.386;11.738;2023-12-20T08:32:59;5.07;;;4.53;;
48040;SDS011;33815;48.386;11.738;2023-12-20T08:35:25;5.00;;;4.53;;
48040;SDS011;33815;48.386;11.738;2023-12-20T08:37:50;7.40;;;5.57;;
48040;SDS011;33815;48.386;11.738;2023-12-20T08:40:15;4.90;;;4.32;;
48040;SDS011;33815;48.386;11.738;2023-12-20T08:42:41;5.63;;;4.43;;
48040;SDS011;33815;48.386;11.738;2023-12-20T08:45:06;5.47;;;4.72;;
48040;SDS011;33815;48.386;11.738;2023-12-20T08:47:32;5.50;;;4.88;;
48040;SDS011;33815;48.386;11.738;2023-12-20T08:49:57;6.78;;;4.68;;
48040;SDS011;33815;48.386;11.738;2023-12-20T08:52:25;5.00;;;4.50;;
48040;SDS011;33815;48.386;11.738;2023-12-20T08:54:52;5.25;;;4.50;;
48040;SDS011;33815;48.386;11.738;2023-12-20T08:57:19;5.45;;;4.60;;
48040;SDS011;33815;48.386;11.738;2023-12-20T08:59:45;5.03;;;4.30;;
48040;SDS011;33815;48.386;11.738;2023-12-20T09:02:11;6.10;;;5.35;;
48040;SDS011;33815;48.386;11.738;2023-12-20T09:04:36;4.75;;;4.35;;
48040;SDS011;33815;48.386;11.738;2023-12-20T09:07:02;5.93;;;4.90;;
48040;SDS011;33815;48.386;11.738;2023-12-20T09:09:27;6.80;;;4.60;;
48040;SDS011;33815;48.386;11.738;2023-12-20T09:11:52;4.40;;;3.75;;
48040;SDS011;33815;48.386;11.738;2023-12-20T09:14:18;5.75;;;4.68;;
48040;SDS011;33815;48.386;11.738;2023-12-20T09:16:44;4.72;;;3.25;;
48040;SDS011;33815;48.386;11.738;2023-12-20T09:19:10;4.68;;;4.03;;
48040;SDS011;33815;48.386;11.738;2023-12-20T09:21:35;4.65;;;4.03;;
48040;SDS011;33815;48.386;11.738;2023-12-20T09:24:00;3.63;;;3.33;;
48040;SDS011;33815;48.386;11.738;2023-12-20T09:26:26;4.82;;;3.55;;
48040;SDS011;33815;48.386;11.738;2023-12-20T09:28:51;4.55;;;3.25;;
48040;SDS011;33815;48.386;11.738;2023-12-20T09:31:16;4.05;;;3.65;;
48040;SDS011;33815;48.386;11.738;2023-12-20T09:33:42;3.85;;;3.22;;
48040;SDS011;33815;48.386;11.738;2023-12-20T09:36:07;3.72;;;3.33;;
48040;SDS011;33815;48.386;11.738;2023-12-20T09:38:32;3.80;;;3.40;;
48040;SDS011;33815;48.386;11.738;2023-12-20T09:40:57;4.38;;;3.85;;
48040;SDS011;33815;48.386;11.738;2023-12-20T09:43:23;3.88;;;3.42;;
48040;SDS011;33815;48.386;11.738;2023-12-20T09:45:51;3.72;;;3.10;;
48040;SDS011;33815;48.386;11.738;2023-12-20T09:48:18;3.58;;;3.28;;
48040;SDS011;33815;48.386;11.738;2023-12-20T09:50:44;3.58;;;3.22;;
48040;SDS011;33815;48.386;11.738;2023-12-20T09:53:11;5.82;;;3.05;;
48040;SDS011;33815;48.386;11.738;2023-12-20T09:55:40;3.80;;;3.20;;
48040;SDS011;33815;48.386;11.738;2023-12-20T09:58:06;5.97;;;3.58;;
48040;SDS011;33815;48.386;11.738;2023-12-20T10:00:33;9.43;;;7.07;;
48040;SDS011;33815;48.386;11.738;2023-12-20T10:03:00;4.07;;;3.67;;
48040;SDS011;33815;48.386;11.738;2023-12-20T10:05:26;5.22;;;4.18;;
48040;SDS011;33815;48.386;11.738;2023-12-20T10:07:53;5.72;;;3.40;;
48040;SDS011;33815;48.386;11.738;2023-12-20T10:10:18;6.53;;;4.90;;
48040;SDS011;33815;48.386;11.738;2023-12-20T10:13:03;3.95;;;3.30;;
48040;SDS011;33815;48.386;11.738;2023-12-20T10:15:36;8.20;;;5.53;;
48040;SDS011;33815;48.386;11.738;2023-12-20T10:18:03;9.75;;;7.63;;
48040;SDS011;33815;48.386;11.738;2023-12-20T10:20:29;3.97;;;3.63;;
48040;SDS011;33815;48.386;11.738;2023-12-20T10:22:56;8.77;;;4.85;;
48040;SDS011;33815;48.386;11.738;2023-12-20T10:25:22;8.77;;;6.03;;
48040;SDS011;33815;48.386;11.738;2023-12-20T10:27:49;4.32;;;3.70;;
48040;SDS011;33815;48.386;11.738;2023-12-20T10:30:33;13.20;;;7.25;;
48040;SDS011;33815;48.386;11.738;2023-12-20T10:32:58;2.35;;;2.15;;
48040;SDS011;33815;48.386;11.738;2023-12-20T10:35:23;4.07;;;3.67;;
48040;SDS011;33815;48.386;11.738;2023-12-20T10:37:49;4.18;;;3.55;;
48040;SDS011;33815;48.386;11.738;2023-12-20T10:40:15;4.03;;;2.70;;
48040;SDS011;33815;48.386;11.738;2023-12-20T10:42:42;5.55;;;3.53;;
48040;SDS011;33815;48.386;11.738;2023-12-20T10:45:07;3.20;;;2.90;;
48040;SDS011;33815;48.386;11.738;2023-12-20T10:47:33;3.90;;;3.60;;
48040;SDS011;33815;48.386;11.738;2023-12-20T10:50:01;5.97;;;2.85;;
48040;SDS011;33815;48.386;11.738;2023-12-20T10:52:29;6.97;;;5.63;;
48040;SDS011;33815;48.386;11.738;2023-12-20T10:54:57;3.72;;;2.83;;
48040;SDS011;33815;48.386;11.738;2023-12-20T10:57:22;7.88;;;5.88;;
48040;SDS011;33815;48.386;11.738;2023-12-20T10:59:50;3.38;;;3.08;;
48040;SDS011;33815;48.386;11.738;2023-12-20T11:02:18;3.97;;;3.22;;
48040;SDS011;33815;48.386;11.738;2023-12-20T11:04:46;3.22;;;2.47;;
48040;SDS011;33815;48.386;11.738;2023-12-20T11:07:21;2.65;;;2.40;;
48040;SDS011;33815;48.386;11.738;2023-12-20T11:10:03;3.95;;;2.65;;
48040;SDS011;33815;48.386;11.738;2023-12-20T11:12:49;5.15;;;4.18;;
48040;SDS011;33815;48.386;11.738;2023-12-20T11:15:19;4.22;;;3.58;;
48040;SDS011;33815;48.386;11.738;2023-12-20T11:17:45;7.63;;;4.13;;
48040;SDS011;33815;48.386;11.738;2023-12-20T11:20:11;5.72;;;4.40;;
48040;SDS011;33815;48.386;11.738;2023-12-20T11:22:37;3.88;;;3.05;;
48040;SDS011;33815;48.386;11.738;2023-12-20T11:25:07;3.50;;;3.05;;
48040;SDS011;33815;48.386;11.738;2023-12-20T11:27:34;3.08;;;2.80;;
48040;SDS011;33815;48.386;11.738;2023-12-20T11:30:03;11.05;;;6.95;;
48040;SDS011;33815;48.386;11.738;2023-12-20T11:32:33;3.28;;;2.95;;
48040;SDS011;33815;48.386;11.738;2023-12-20T11:37:36;3.20;;;2.90;;
48040;SDS011;33815;48.386;11.738;2023-12-20T11:40:03;3.22;;;2.92;;
48040;SDS011;33815;48.386;11.738;2023-12-20T11:42:38;2.80;;;2.55;;
48040;SDS011;33815;48.386;11.738;2023-12-20T11:45:05;2.97;;;2.65;;
48040;SDS011;33815;48.386;11.738;2023-12-20T11:47:33;2.88;;;2.58;;
48040;SDS011;33815;48.386;11.738;2023-12-20T11:49:59;2.28;;;2.17;;
48040;SDS011;33815;48.386;11.738;2023-12-20T11:52:28;3.10;;;2.15;;
48040;SDS011;33815;48.386;11.738;2023-12-20T11:54:54;3.08;;;2.45;;
48040;SDS011;33815;48.386;11.738;2023-12-20T11:57:19;3.45;;;2.80;;
48040;SDS011;33815;48.386;11.738;2023-12-20T11:59:44;2.53;;;2.33;;
48040;SDS011;33815;48.386;11.738;2023-12-20T12:02:11;2.83;;;2.40;;
48040;SDS011;33815;48.386;11.738;2023-12-20T12:04:37;2.08;;;1.98;;
48040;SDS011;33815;48.386;11.738;2023-12-20T12:07:03;3.13;;;2.83;;
48040;SDS011;33815;48.386;11.738;2023-12-20T12:09:28;2.10;;;2.00;;
48040;SDS011;33815;48.386;11.738;2023-12-20T12:11:54;5.00;;;2.10;;
48040;SDS011;33815;48.386;11.738;2023-12-20T12:14:20;2.65;;;2.47;;
48040;SDS011;33815;48.386;11.738;2023-12-20T12:16:45;2.38;;;2.17;;
48040;SDS011;33815;48.386;11.738;2023-12-20T12:19:23;2.33;;;2.13;;
48040;SDS011;33815;48.386;11.738;2023-12-20T12:21:49;4.10;;;2.25;;
48040;SDS011;33815;48.386;11.738;2023-12-20T12:24:19;2.10;;;1.90;;
48040;SDS011;33815;48.386;11.738;2023-12-20T12:26:50;2.88;;;1.95;;
48040;SDS011;33815;48.386;11.738;2023-12-20T12:29:16;2.40;;;2.20;;
48040;SDS011;33815;48.386;11.738;2023-12-20T12:31:41;2.58;;;1.85;;
48040;SDS011;33815;48.386;11.738;2023-12-20T12:34:07;1.88;;;1.77;;
48040;SDS011;33815;48.386;11.738;2023-12-20T12:36:34;2.05;;;1.90;;
48040;SDS011;33815;48.386;11.738;2023-12-20T12:39:02;1.90;;;1.80;;
48040;SDS011;33815;48.386;11.738;2023-12-20T12:41:29;1.77;;;1.60;;
48040;SDS011;33815;48.386;11.738;2023-12-20T12:43:54;2.47;;;1.42;;
48040;SDS011;33815;48.386;11.738;2023-12-20T12:46:19;1.65;;;1.50;;
48040;SDS011;33815;48.386;11.738;2023-12-20T12:48:44;2.03;;;1.85;;
48040;SDS011;33815;48.386;11.738;2023-12-20T12:51:10;2.05;;;1.35;;
48040;SDS011;33815;48.386;11.738;2023-12-20T12:53:38;3.55;;;1.70;;
48040;SDS011;33815;48.386;11.738;2023-12-20T12:56:04;1.67;;;1.25;;
48040;SDS011;33815;48.386;11.738;2023-12-20T12:58:29;1.67;;;1.58;;
48040;SDS011;33815;48.386;11.738;2023-12-20T13:00:55;2.95;;;1.73;;
48040;SDS011;33815;48.386;11.738;2023-12-20T13:03:20;2.00;;;1.80;;
48040;SDS011;33815;48.386;11.738;2023-12-20T13:05:46;1.70;;;1.60;;
48040;SDS011;33815;48.386;11.738;2023-12-20T13:08:12;3.00;;;1.40;;
48040;SDS011;33815;48.386;11.738;2023-12-20T13:10:39;2.25;;;1.52;;
48040;SDS011;33815;48.386;11.738;2023-12-20T13:13:04;1.65;;;1.55;;
48040;SDS011;33815;48.386;11.738;2023-12-20T13:15:29;1.80;;;1.70;;
48040;SDS011;33815;48.386;11.738;2023-12-20T13:17:55;1.77;;;1.67;;
48040;SDS011;33815;48.386;11.738;2023-12-20T13:20:21;3.00;;;1.67;;
48040;SDS011;33815;48.386;11.738;2023-12-20T13:22:47;2.10;;;1.65;;
48040;SDS011;33815;48.386;11.738;2023-12-20T13:25:12;1.58;;;1.48;;
48040;SDS011;33815;48.386;11.738;2023-12-20T13:27:41;2.10;;;1.55;;
48040;SDS011;33815;48.386;11.738;2023-12-20T13:30:06;2.35;;;1.73;;
48040;SDS011;33815;48.386;11.738;2023-12-20T13:32:32;1.50;;;1.40;;
48040;SDS011;33815;48.386;11.738;2023-12-20T13:34:57;2.45;;;1.67;;
48040;SDS011;33815;48.386;11.738;2023-12-20T13:37:22;3.90;;;1.85;;
48040;SDS011;33815;48.386;11.738;2023-12-20T13:39:48;2.83;;;1.60;;
48040;SDS011;33815;48.386;11.738;2023-12-20T13:42:13;2.75;;;1.63;;
48040;SDS011;33815;48.386;11.738;2023-12-20T13:44:39;2.47;;;1.55;;
48040;SDS011;33815;48.386;11.738;2023-12-20T13:47:04;4.67;;;1.90;;
48040;SDS011;33815;48.386;11.738;2023-12-20T13:49:29;2.60;;;1.67;;
48040;SDS011;33815;48.386;11.738;2023-12-20T13:51:55;2.17;;;1.98;;
48040;SDS011;33815;48.386;11.738;2023-12-20T13:54:20;3.53;;;2.00;;
48040;SDS011;33815;48.386;11.738;2023-12-20T13:56:47;1.65;;;1.48;;
48040;SDS011;33815;48.386;11.738;2023-12-20T13:59:12;3.35;;;1.95;;
48040;SDS011;33815;48.386;11.738;2023-12-20T14:01:38;2.10;;;1.90;;
48040;SDS011;33815;48.386;11.738;2023-12-20T14:04:04;2.13;;;1.85;;
48040;SDS011;33815;48.386;11.738;2023-12-20T14:06:29;3.50;;;1.63;;
48040;SDS011;33815;48.386;11.738;2023-12-20T14:08:54;2.28;;;1.58;;
48040;SDS011;33815;48.386;11.738;2023-12-20T14:11:20;7.85;;;2.15;;
48040;SDS011;33815;48.386;11.738;2023-12-20T14:13:45;2.13;;;1.65;;
48040;SDS011;33815;48.386;11.738;2023-12-20T14:16:10;5.05;;;1.70;;
48040;SDS011;33815;48.386;11.738;2023-12-20T14:18:36;3.90;;;2.70;;
48040;SDS011;33815;48.386;11.738;2023-12-20T14:21:01;2.70;;;1.63;;
48040;SDS011;33815;48.386;11.738;2023-12-20T14:23:26;2.97;;;1.40;;
48040;SDS011;33815;48.386;11.738;2023-12-20T14:25:52;3.80;;;1.48;;
48040;SDS011;33815;48.386;11.738;2023-12-20T14:28:18;5.45;;;2.03;;